San Juan, PR (00927)

03:21 AST le 03 Mars 2015 (GMT -0400)
San Ignacio | Change Station
CLOSE
Current Station
Stations météorologiques personnelles
Location: San Juan, PR
Altitude: 171 ft
Stations météo à proximité

Alt. 171 ft 18.38 °N, 66.07 °W | Updated 3 seconds ago

Mostly Cloudy
Nuageux
70.3 ° F
Paraît 70.3 ° F
N
0.0
Vent Variable Vent de Nord
Gusts 0.0 mph

Aujourd'hui
Haut(e) -- | Bas -- ° F
--% Risque de précip.
Hier
Haut(e) -- | Bas -- ° F
Precip. -- pouce
6:41 AM 6:30 PM
Lune gibbeuse croissante, 95% visible
Pression 30.02 pouce
Visibilité 10.0 Miles terrestres
Nuages Nuages épars 3000 ft
Nuages épars 4800 ft
Nuageux 6000 ft
Point de rosée 70 ° F
Humidité 99%
Précipitations 0.00 pouce
Profondeur de la couche neigeuse Non disponible.
UV 0 sur 12
Pollen Non disponible.
Qualité de l'air Non disponible.
Flu Activity Non disponible.
METAR TJSJ 030656Z 00000KT 10SM SCT030 SCT048 BKN060 23/21 A3002 RMK AO2 RAE45 SLP164 P0001 T02280211

More Conditions Fewer Conditions

Pression 30.02 pouce
Visibilité 10.0 Miles terrestres
Nuages Nuages épars 3000 ft
Nuages épars 4800 ft
Nuageux 6000 ft
Point de rosée 70 ° F
Humidité 99%
Précipitations 0.00 pouce
Profondeur de la couche neigeuse Non disponible.
UV 0 sur 12
Pollen Non disponible.
Qualité de l'air Non disponible.
Flu Activity Non disponible.
METAR TJSJ 030656Z 00000KT 10SM SCT030 SCT048 BKN060 23/21 A3002 RMK AO2 RAE45 SLP164 P0001 T02280211

More Conditions Fewer Conditions

10-Day Weather Forecast

Almanac

Astronomie

Mar. 03, 2015 Lever Coucher
Temps réel
Crépuscule civil
Crépuscule nautique
Crépuscule astronomique
Lune
Durée de lumière visible
Longueur du jour
Tomorrow will be .
, % of the Moon is Illuminated

Extrêmes aujourd'hui

State Highs State Lows

Community

WunderPhotos

Upload Photos

1,802,073 Photos téléchargées !

WunderBlogs® & News

Nearby

Qualité de l'air

  Qualité de l'air Indice de la qualité de l'air Polluant
Not available.

Épaisseur de neige

Station Depth Altitude

Activité sismique

Ville Distance Mag. Time & Date
Minimum magnitude displayed is 2.5.

Températures des eaux côtières

Lieu Température

Stations météo à proximité